Flight Track Log - Related Links

Times and Time Zones

All times are in EDT time to prevent confusion due to time zone crossing. See the SWA2236 flight status page for this flight to view local times or setup timezone preferences in your user account.

Time Position Orientation Groundspeed Altitude Reporting Facility
EDT Latitude Longitude Course Direction KTS MPH feet Rate Location/Type
Mon 02:43:47 PM 36.0761 -115.1789 254° West 181 208 3,200  Level Los Angeles Center
Mon 02:45:00 PM 36.0569 -115.2594 254° West 239 275 4,900 1,843 Climbing Los Angeles Center
Mon 02:46:07 PM 35.9878 -115.2928 201° Southwest 265 305 7,500 1,442 Climbing Los Angeles Center
Mon 02:47:09 PM 35.9225 -115.2603 158° South 280 322 8,000 1,152 Climbing Los Angeles Center
Mon 02:48:12 PM 35.9194 -115.1622 92° East 289 333 9,900 1,872 Climbing Los Angeles Center
Mon 02:49:14 PM 35.9203 -115.0311 90° East 312 359 11,900 2,226 Climbing Los Angeles Center
Mon 02:50:16 PM 35.9219 -114.9047 89° East 355 409 14,500 2,419 Climbing Los Angeles Center
Mon 02:51:18 PM 35.9217 -114.7769 90° East 368 423 16,900 2,177 Climbing Los Angeles Center
Mon 02:52:20 PM 35.9222 -114.6408 90° East 387 445 19,000 1,984 Climbing Los Angeles Center
Mon 02:53:22 PM 35.9217 -114.5000 90° East 406 467 21,000 1,887 Climbing Los Angeles Center
Mon 02:54:24 PM 35.9225 -114.3536 90° East 423 487 22,900 2,032 Climbing Los Angeles Center
Mon 02:55:26 PM 35.9225 -114.1731 90° East 437 503 25,200 1,887 Climbing Los Angeles Center
Mon 02:56:28 PM 35.9217 -114.0211 90° East 442 509 26,800 1,500 Climbing Los Angeles Center
Mon 02:57:30 PM 35.9200 -113.8653 91° East 452 520 28,300 1,200 Climbing Los Angeles Center
Mon 02:58:33 PM 35.8925 -113.7111 102° East 458 527 29,300 1,152 Climbing Los Angeles Center
Mon 02:59:35 PM 35.8667 -113.5503 101° East 468 539 30,700 1,645 Climbing Los Angeles Center
Mon 03:00:37 PM 35.8528 -113.3917 96° East 468 539 32,700 1,839 Climbing Los Angeles Center
Mon 03:01:39 PM 35.8547 -113.2344 89° East 462 532 34,500 1,113 Climbing Los Angeles Center
Mon 03:02:41 PM 35.8558 -113.0478 90° East 456 525 35,000 242 Climbing Los Angeles Center
Mon 03:03:43 PM 35.8575 -112.8925 89° East 454 522 35,000  Level Los Angeles Center
Mon 03:04:45 PM 35.8572 -112.7367 90° East 454 522 35,000  Level Los Angeles Center
Mon 03:05:47 PM 35.8589 -112.5817 89° East 453 521 35,000 435 Level Los Angeles Center
Mon 03:06:49 PM 35.8583 -112.4253 90° East 455 524 35,900 912 Climbing Los Angeles Center
Mon 03:07:52 PM 35.8597 -112.2700 89° East 455 524 36,900 528 Climbing Los Angeles Center
Mon 03:08:54 PM 35.8594 -112.0842 90° East 455 524 37,000 48 Climbing Los Angeles Center
Mon 03:09:56 PM 35.8586 -111.9272 90° East 457 526 37,000  Level Los Angeles Center
Mon 03:10:58 PM 35.8575 -111.7689 90° East 462 532 37,000  Level Los Angeles Center
Mon 03:12:00 PM 35.8581 -111.6100 90° East 463 533 37,000  Level Los Angeles Center
Mon 03:13:02 PM 35.8589 -111.4514 90° East 462 532 37,000  Level Los Angeles Center
Mon 03:14:04 PM 35.8583 -111.2614 90° East 463 533 37,000  Level Los Angeles Center
Mon 03:14:55 PM 35.8547 -111.1400 92° East 459 528 37,000  Level Denver Center
Mon 03:15:58 PM 35.8542 -110.9831 90° East 460 529 37,000  Level Denver Center
Mon 03:17:00 PM 35.8528 -110.8275 91° East 456 525 37,000  Level Denver Center
Mon 03:18:02 PM 35.8511 -110.6722 91° East 456 525 37,000  Level Denver Center
Mon 03:19:04 PM 35.8783 -110.4911 79° East 462 532 37,000  Level Denver Center
Mon 03:20:06 PM 35.9422 -110.3536 60° Northeast 463 533 37,000  Level Denver Center
Mon 03:21:08 PM 36.0108 -110.2147 59° Northeast 470 541 37,000  Level Denver Center
Mon 03:22:10 PM 36.0778 -110.0581 62° Northeast 467 537 37,000  Level Denver Center
Mon 03:23:12 PM 36.0992 -109.9072 80° East 463 533 37,000  Level Denver Center
Mon 03:24:14 PM 36.1214 -109.7581 80° East 461 531 37,000  Level Denver Center
Mon 03:25:16 PM 36.1486 -109.5836 79° East 462 532 37,000  Level Denver Center
Mon 03:26:18 PM 36.1714 -109.4347 79° East 460 529 37,000  Level Denver Center
Mon 03:27:20 PM 36.1958 -109.2614 80° East 457 526 37,000  Level Denver Center
Mon 03:28:22 PM 36.1728 -109.1175 101° East 445 512 37,000  Level Denver Center
Mon 03:29:24 PM 36.1164 -108.9611 114° Southeast 449 517 37,000  Level Denver Center
Mon 03:30:26 PM 36.0628 -108.8194 115° Southeast 451 519 37,000  Level Denver Center
Mon 03:31:28 PM 36.0258 -108.6697 107° East 453 521 37,000  Level Denver Center
Mon 03:32:30 PM 35.9944 -108.5022 103° East 450 518 37,000  Level Denver Center
Mon 03:33:33 PM 35.9842 -108.3539 95° East 453 521 37,000  Level Denver Center
Mon 03:34:35 PM 35.9683 -108.1806 96° East 455 524 37,000  Level Denver Center
Mon 03:35:37 PM 35.9550 -108.0322 96° East 455 524 37,000  Level Denver Center
Mon 03:36:39 PM 35.9389 -107.8583 96° East 457 526 37,000  Level Denver Center
Mon 03:37:41 PM 35.9258 -107.7100 96° East 455 524 37,000  Level Denver Center
Mon 03:38:43 PM 35.9083 -107.5367 97° East 457 526 37,000  Level Denver Center
Mon 03:39:45 PM 35.8961 -107.4003 96° East 456 525 37,000  Level Denver Center
Mon 03:40:47 PM 35.8803 -107.2444 97° East 457 526 37,000  Level Denver Center
Mon 03:41:49 PM 35.8664 -107.0878 96° East 457 526 37,000  Level Denver Center
Mon 03:43:14 PM 35.8411 -106.8439 97° East 454 522 37,000  Level Albuquerque Center
Mon 03:44:16 PM 35.8258 -106.6983 97° East 448 516 37,000  Level Albuquerque Center
Mon 03:45:18 PM 35.8089 -106.5244 97° East 446 513 37,000  Level Albuquerque Center
Mon 03:46:20 PM 35.7928 -106.3689 97° East 455 524 37,000  Level Albuquerque Center
Mon 03:47:22 PM 35.7758 -106.2172 98° East 451 519 37,000  Level Albuquerque Center
Mon 03:48:24 PM 35.7653 -106.0797 95° East 437 503 37,000  Level Albuquerque Center
Mon 03:49:25 PM 35.7494 -105.9258 97° East 447 514 37,000  Level Albuquerque Center
Mon 03:50:27 PM 35.7308 -105.7667 98° East 456 525 37,000  Level Albuquerque Center
Mon 03:51:29 PM 35.7106 -105.5856 98° East 454 522 37,000  Level Albuquerque Center
Mon 03:52:31 PM 35.6908 -105.4314 99° East 454 522 37,000  Level Albuquerque Center
Mon 03:53:33 PM 35.6742 -105.2761 97° East 454 522 37,000  Level Albuquerque Center
Mon 03:54:35 PM 35.6572 -105.1189 98° East 457 526 37,000  Level Albuquerque Center
Mon 03:55:37 PM 35.6394 -104.9622 98° East 458 527 37,000  Level Albuquerque Center
Mon 03:56:39 PM 35.6217 -104.8072 98° East 454 522 37,000  Level Albuquerque Center
Mon 03:57:41 PM 35.6039 -104.6508 98° East 456 525 37,000  Level Albuquerque Center
Mon 03:58:43 PM 35.5842 -104.4692 98° East 455 524 37,000  Level Albuquerque Center
Mon 03:59:45 PM 35.5669 -104.3128 98° East 455 524 37,000  Level Albuquerque Center
Mon 04:00:47 PM 35.5489 -104.1564 98° East 454 522 37,000  Level Albuquerque Center
Mon 04:01:49 PM 35.5303 -104.0000 98° East 455 524 37,000  Level Albuquerque Center
Mon 04:02:51 PM 35.5122 -103.8444 98° East 453 521 37,000  Level Albuquerque Center
Mon 04:03:52 PM 35.4925 -103.6889 99° East 455 524 37,000  Level Albuquerque Center
Mon 04:04:54 PM 35.4744 -103.5347 98° East 452 520 37,000  Level Albuquerque Center
Mon 04:05:56 PM 35.4556 -103.3803 98° East 454 522 37,000  Level Albuquerque Center
Mon 04:06:58 PM 35.4353 -103.2264 99° East 454 522 37,000  Level Albuquerque Center
Mon 04:08:00 PM 35.4161 -103.0706 99° East 457 526 37,000  Level Albuquerque Center
Mon 04:09:02 PM 35.3928 -102.8894 99° East 458 527 37,000  Level Albuquerque Center
Mon 04:10:04 PM 35.3742 -102.7328 98° East 460 529 37,000  Level Albuquerque Center
Mon 04:11:06 PM 35.3542 -102.5797 99° East 460 529 37,000  Level Albuquerque Center
Mon 04:12:08 PM 35.3328 -102.4275 100° East 457 526 37,000  Level Albuquerque Center
Mon 04:13:10 PM 35.3125 -102.2733 99° East 458 527 37,000  Level Albuquerque Center
Mon 04:14:12 PM 35.2922 -102.1219 99° East 454 522 37,000  Level Albuquerque Center
Mon 04:15:13 PM 35.2703 -101.9583 99° East 458 527 37,000  Level Albuquerque Center
Mon 04:16:15 PM 35.2497 -101.8050 99° East 455 524 37,000  Level Albuquerque Center
Mon 04:17:17 PM 35.2239 -101.6369 101° East 456 525 37,000  Level Albuquerque Center
Mon 04:18:19 PM 35.1942 -101.4886 104° East 450 518 37,000  Level Albuquerque Center
Mon 04:19:21 PM 35.1572 -101.3203 105° East 454 522 37,000  Level Albuquerque Center
Mon 04:20:23 PM 35.1250 -101.1711 105° East 456 525 37,000  Level Albuquerque Center
Mon 04:21:25 PM 35.0936 -101.0222 104° East 454 522 37,000  Level Albuquerque Center
Mon 04:22:27 PM 35.0642 -100.8744 104° East 452 520 37,000  Level Albuquerque Center
Mon 04:23:29 PM 35.0306 -100.7236 105° East 458 527 37,000  Level Albuquerque Center
Mon 04:24:30 PM 34.9986 -100.5736 105° East 457 526 37,000  Level Albuquerque Center
Mon 04:25:32 PM 34.9661 -100.4236 105° East 459 528 37,000  Level Albuquerque Center
Mon 04:26:34 PM 34.9314 -100.2600 104° East 460 529 37,000  Level Albuquerque Center
Mon 04:27:36 PM 34.8989 -100.1092 105° East 460 529 37,000  Level Albuquerque Center
Mon 04:28:37 PM 34.8639 -99.9578 106° East 463 533 37,000  Level Albuquerque Center
Mon 04:29:09 PM 34.8439 -99.8703 106° East 462 532 37,000  Level Fort Worth Center
Mon 04:30:09 PM 34.8092 -99.7175 105° East 457 526 37,000  Level Fort Worth Center
Mon 04:31:09 PM 34.7744 -99.5647 105° East 463 533 37,000  Level Fort Worth Center
Mon 04:32:09 PM 34.7414 -99.4175 105° East 463 533 37,000  Level Fort Worth Center
Mon 04:33:09 PM 34.7061 -99.2650 106° East 463 533 37,000  Level Fort Worth Center
Mon 04:34:09 PM 34.6750 -99.1128 104° East 463 533 37,000  Level Fort Worth Center
Mon 04:35:09 PM 34.6394 -98.9633 106° East 463 533 37,000  Level Fort Worth Center
Mon 04:36:09 PM 34.6056 -98.8189 106° East 449 517 37,000  Level Fort Worth Center
Mon 04:37:09 PM 34.5717 -98.6719 106° East 449 517 37,000  Level Fort Worth Center
Mon 04:38:09 PM 34.5336 -98.5228 107° East 449 517 37,000  Level Fort Worth Center
Mon 04:39:09 PM 34.4992 -98.3761 106° East 454 522 37,000  Level Fort Worth Center
Mon 04:40:09 PM 34.4650 -98.2272 106° East 459 528 37,000  Level Fort Worth Center
Mon 04:41:09 PM 34.4281 -98.0808 107° East 459 528 37,000  Level Fort Worth Center
Mon 04:42:09 PM 34.3933 -97.9319 106° East 459 528 37,000  Level Fort Worth Center
Mon 04:43:09 PM 34.3586 -97.7858 106° East 459 528 37,000  Level Fort Worth Center
Mon 04:44:09 PM 34.3214 -97.6347 107° East 464 534 37,000  Level Fort Worth Center
Mon 04:45:09 PM 34.2861 -97.4889 106° East 464 534 37,000 400 Level Fort Worth Center
Mon 04:46:09 PM 34.2483 -97.3406 107° East 464 534 37,800 900 Climbing Fort Worth Center
Mon 04:47:09 PM 34.2128 -97.1950 106° East 464 534 38,800 600 Climbing Fort Worth Center
Mon 04:48:09 PM 34.1811 -97.0444 104° East 459 528 39,000 100 Climbing Fort Worth Center
Mon 04:49:09 PM 34.1450 -96.8789 105° East 460 529 39,000  Level Fort Worth Center
Mon 04:50:09 PM 34.1131 -96.7261 104° East 460 529 39,000  Level Fort Worth Center
Mon 04:51:09 PM 34.0914 -96.5908 101° East 455 524 39,000  Level Fort Worth Center
Mon 04:52:09 PM 34.0569 -96.4408 105° East 455 524 39,000  Level Fort Worth Center
Mon 04:53:09 PM 34.0264 -96.2908 104° East 455 524 39,000  Level Fort Worth Center
Mon 04:54:09 PM 33.9917 -96.1383 105° East 455 524 39,000  Level Fort Worth Center
Mon 04:55:09 PM 33.9567 -95.9911 106° East 455 524 39,000  Level Fort Worth Center
Mon 04:56:09 PM 33.9214 -95.8317 105° East 455 524 39,000  Level Fort Worth Center
Mon 04:57:09 PM 33.8861 -95.6844 106° East 455 524 39,000  Level Fort Worth Center
Mon 04:58:09 PM 33.8550 -95.5553 106° East 455 524 39,000  Level Fort Worth Center
Mon 04:59:09 PM 33.8256 -95.4083 104° East 455 524 39,000  Level Fort Worth Center
Mon 05:00:09 PM 33.7981 -95.2589 102° East 455 524 39,000  Level Fort Worth Center
Mon 05:01:09 PM 33.7703 -95.1072 102° East 455 524 39,000  Level Fort Worth Center
Mon 05:02:09 PM 33.7383 -94.9556 104° East 455 524 39,000  Level Fort Worth Center
Mon 05:03:09 PM 33.7081 -94.8067 104° East 455 524 39,000  Level Fort Worth Center
Mon 05:04:09 PM 33.6842 -94.6575 101° East 460 529 39,000  Level Fort Worth Center
Mon 05:05:09 PM 33.6556 -94.5089 103° East 455 524 39,000  Level Fort Worth Center
Mon 05:06:09 PM 33.6269 -94.3600 103° East 455 524 39,000  Level Fort Worth Center
Mon 05:07:09 PM 33.5983 -94.2114 103° East 455 524 39,000  Level Fort Worth Center
Mon 05:08:09 PM 33.5694 -94.0631 103° East 450 518 39,000  Level Fort Worth Center
Mon 05:09:09 PM 33.5422 -93.9094 102° East 456 525 39,000  Level Fort Worth Center
Mon 05:10:09 PM 33.5086 -93.7564 105° East 468 539 39,000  Level Fort Worth Center
Mon 05:11:09 PM 33.4703 -93.5911 105° East 468 539 39,000  Level Fort Worth Center
Mon 05:12:09 PM 33.4261 -93.4439 110° East 468 539 39,000  Level Fort Worth Center
Mon 05:13:09 PM 33.3858 -93.2939 108° East 468 539 39,000  Level Fort Worth Center
Mon 05:14:09 PM 33.3456 -93.1464 108° East 468 539 39,000  Level Fort Worth Center
Mon 05:16:09 PM 33.2642 -92.8525 108° East 463 533 39,000  Level Fort Worth Center
Mon 05:17:09 PM 33.2253 -92.7053 107° East 463 533 39,000  Level Fort Worth Center
Mon 05:18:09 PM 33.1842 -92.5586 108° East 463 533 39,000  Level Fort Worth Center
Mon 05:19:09 PM 33.1450 -92.4119 108° East 456 525 39,000  Level Fort Worth Center
Mon 05:20:55 PM 33.0703 -92.1594 109° East 452 520 39,000  Level Memphis Center
Mon 05:21:55 PM 33.0386 -92.0425 108° East 452 520 39,000  Level Memphis Center
Mon 05:22:55 PM 32.9864 -91.8828 111° Southeast 458 527 39,000  Level Memphis Center
Mon 05:23:55 PM 32.9483 -91.7386 107° East 458 527 39,000  Level Memphis Center
Mon 05:24:55 PM 32.9058 -91.5919 109° East 463 533 39,000  Level Memphis Center
Mon 05:25:55 PM 32.8633 -91.4481 109° East 463 533 39,000  Level Memphis Center
Mon 05:26:55 PM 32.8189 -91.2917 109° East 463 533 39,000  Level Memphis Center
Mon 05:27:55 PM 32.7758 -91.1481 110° East 463 533 39,000  Level Memphis Center
Mon 05:28:55 PM 32.7328 -91.0092 110° East 463 533 39,000  Level Memphis Center
Mon 05:29:55 PM 32.6917 -90.8633 108° East 463 533 39,000  Level Memphis Center
Mon 05:30:55 PM 32.6483 -90.7225 110° East 458 527 39,000  Level Memphis Center
Mon 05:31:55 PM 32.6069 -90.5792 109° East 458 527 39,000  Level Memphis Center
Mon 05:32:56 PM 32.5633 -90.4361 110° East 458 527 39,000  Level Memphis Center
Mon 05:33:55 PM 32.5194 -90.2958 110° East 458 527 39,000  Level Memphis Center
Mon 05:34:55 PM 32.4775 -90.1506 109° East 458 527 39,000  Level Memphis Center
Mon 05:35:55 PM 32.4314 -90.0078 111° Southeast 458 527 39,000  Level Memphis Center
Mon 05:36:55 PM 32.3933 -89.8775 109° East 458 527 39,000  Level Memphis Center
Mon 05:37:55 PM 32.3572 -89.7303 106° East 463 533 39,000  Level Memphis Center
Mon 05:38:55 PM 32.3417 -89.5803 97° East 458 527 39,000  Level Memphis Center
Mon 05:39:55 PM 32.3303 -89.4306 95° East 458 527 39,000  Level Memphis Center
Mon 05:40:55 PM 32.3247 -89.2781 92° East 465 535 39,000  Level Memphis Center
Mon 05:41:55 PM 32.3192 -89.1281 92° East 458 527 39,000  Level Memphis Center
Mon 05:42:55 PM 32.3197 -88.9783 90° East 458 527 39,000  Level Memphis Center
Mon 05:43:55 PM 32.3181 -88.8283 91° East 458 527 39,000  Level Memphis Center
Mon 05:45:46 PM 32.3139 -88.5361 91° East 463 533 39,000  Level Atlanta Center
Mon 05:46:45 PM 32.2794 -88.3894 105° East 463 533 39,000  Level Atlanta Center
Mon 05:47:45 PM 32.2281 -88.2472 113° Southeast 456 525 39,000  Level Atlanta Center
Mon 05:48:45 PM 32.1700 -88.1069 116° Southeast 461 531 39,000  Level Atlanta Center
Mon 05:49:45 PM 32.1119 -87.9669 116° Southeast 473 544 39,000  Level Atlanta Center
Mon 05:50:45 PM 32.0558 -87.8272 115° Southeast 473 544 39,000  Level Atlanta Center
Mon 05:51:45 PM 31.9994 -87.6878 115° Southeast 473 544 39,000  Level Atlanta Center
Mon 05:52:45 PM 31.9486 -87.5731 118° Southeast 478 550 39,000  Level Atlanta Center
Mon 05:53:45 PM 31.8844 -87.4067 114° Southeast 473 544 39,000  Level Atlanta Center
Mon 05:54:45 PM 31.8214 -87.2700 118° Southeast 478 550 39,000  Level Atlanta Center
Mon 05:55:45 PM 31.7664 -87.1336 115° Southeast 478 550 39,000  Level Atlanta Center
Mon 05:56:45 PM 31.7050 -86.9950 117° Southeast 478 550 39,000  Level Atlanta Center
Mon 05:58:29 PM 31.6083 -86.7686 117° Southeast 497 572 39,000  Level Jacksonville Center
Mon 05:59:29 PM 31.5478 -86.6319 117° Southeast 479 551 39,000  Level Jacksonville Center
Mon 06:00:29 PM 31.4889 -86.4958 117° Southeast 473 544 39,000  Level Jacksonville Center
Mon 06:01:29 PM 31.4322 -86.3619 116° Southeast 467 537 39,000 -400 Level Jacksonville Center
Mon 06:02:29 PM 31.3672 -86.2136 117° Southeast 466 536 38,200 -850 Descending Jacksonville Center
Mon 06:03:29 PM 31.3081 -86.0778 117° Southeast 466 536 37,300 -900 Descending Jacksonville Center
Mon 06:04:29 PM 31.2508 -85.9422 116° Southeast 466 536 36,400 -950 Descending Jacksonville Center
Mon 06:05:29 PM 31.1894 -85.8042 117° Southeast 466 536 35,400 -1,000 Descending Jacksonville Center
Mon 06:06:29 PM 31.1467 -85.6647 110° East 466 536 34,400 -1,000 Descending Jacksonville Center
Mon 06:07:29 PM 31.1081 -85.5203 107° East 461 531 33,400 -700 Descending Jacksonville Center
Mon 06:08:29 PM 31.0669 -85.3761 108° East 461 531 33,000 -200 Descending Jacksonville Center
Mon 06:09:29 PM 31.0281 -85.2319 107° East 466 536 33,000  Level Jacksonville Center
Mon 06:10:29 PM 30.9867 -85.0881 109° East 466 536 33,000  Level Jacksonville Center
Mon 06:11:29 PM 30.9453 -84.9417 108° East 466 536 33,000  Level Jacksonville Center
Mon 06:12:29 PM 30.9036 -84.7933 108° East 466 536 33,000 -250 Level Jacksonville Center
Mon 06:13:29 PM 30.8600 -84.6472 109° East 471 542 32,500 -800 Descending Jacksonville Center
Mon 06:14:29 PM 30.8200 -84.5036 108° East 471 542 31,400 -1,050 Descending Jacksonville Center
Mon 06:15:29 PM 30.7800 -84.3603 108° East 471 542 30,400 -1,000 Descending Jacksonville Center
Mon 06:16:29 PM 30.7378 -84.2194 109° East 465 535 29,400 -1,000 Descending Jacksonville Center
Mon 06:17:29 PM 30.6994 -84.0789 108° East 460 529 28,400 -1,000 Descending Jacksonville Center
Mon 06:18:29 PM 30.6569 -83.9406 110° East 455 524 27,400 -1,050 Descending Jacksonville Center
Mon 06:19:29 PM 30.6203 -83.8100 108° East 447 514 26,300 -1,050 Descending Jacksonville Center
Mon 06:20:29 PM 30.5814 -83.6792 109° East 442 509 25,300 -950 Descending Jacksonville Center
Mon 06:21:29 PM 30.5508 -83.5681 108° East 424 488 24,400 -650 Descending Jacksonville Center
Mon 06:22:29 PM 30.5325 -83.4378 99° East 404 465 24,000 -200 Descending Jacksonville Center
Mon 06:23:29 PM 30.5311 -83.3050 91° East 404 465 24,000 -100 Level Jacksonville Center
Mon 06:24:29 PM 30.5250 -83.1747 93° East 404 465 23,800 -1,100 Descending Jacksonville Center
Mon 06:25:29 PM 30.5233 -83.0494 91° East 404 465 21,800 -2,000 Descending Jacksonville Center
Mon 06:26:29 PM 30.5192 -82.9239 92° East 393 452 19,800 -1,950 Descending Jacksonville Center
Mon 06:27:29 PM 30.5128 -82.8058 94° East 381 438 17,900 -1,900 Descending Jacksonville Center
Mon 06:28:29 PM 30.5022 -82.6853 96° East 376 433 16,000 -1,979 Descending Jacksonville Center
Mon 06:29:06 PM 30.4856 -82.6058 104° East 363 418 14,700 -1,700 Descending Jacksonville Center
Mon 06:30:29 PM 30.4578 -82.4539 102° East 353 406 12,600 -1,301 Descending Jacksonville Center
Mon 06:31:29 PM 30.4386 -82.3506 102° East 346 398 11,600 -1,000 Descending Jacksonville Center
Mon 06:32:29 PM 30.4214 -82.2494 101° East 319 367 10,600 -1,200 Descending Jacksonville Center
Mon 06:33:29 PM 30.4042 -82.1581 102° East 301 346 9,200 -1,350 Descending Jacksonville Center
Mon 06:34:29 PM 30.3850 -82.0667 104° East 285 328 7,900 -1,038 Descending Jacksonville Center
Mon 06:35:42 PM 30.3864 -81.9678 89° East 248 285 6,900 -1,200 Descending Jacksonville Center
Mon 06:36:29 PM 30.4194 -81.9217 50° Northeast 229 264 5,500 -2,131 Descending Jacksonville Center
Mon 06:37:29 PM 30.4003 -81.8667 112° Southeast 179 206 3,100 -1,800 Descending Jacksonville Center
Mon 06:38:29 PM 30.3839 -81.9172 249° West 49 56 1,900 -465 Descending Jacksonville Center
Mon 06:39:51 PM 30.4189 -81.8567 56° Northeast 198 228 2,000 44 Climbing Jacksonville Center
Mon 06:40:46 PM 30.4183 -81.7967 91° East 199 229 2,000  Level Jacksonville Center
Mon 06:41:47 PM 30.4200 -81.7339 88° East 181 208 2,000 -295 Level Jacksonville Center
Mon 06:42:48 PM 30.4300 -81.6808 78° East 144 166 1,400 -738 Descending Jacksonville Center
Mon 06:43:49 PM 30.4631 -81.6683 18° North 138 159 500 -885 Descending Jacksonville Center
Mon 06:45:00 PM 30.4833 -81.6833 311° West  Level FlightAware Approximate
Mon 06:52:00 PM 30.4941 -81.6879 311° West  Level Estimated

Login

Don't have an account? Register now (free) for customized features, flight alerts, and more!